createdAt,value
2023-05-01T00:01:26.352Z,3.23
2023-05-01T00:04:28.263Z,4.27
2023-05-01T00:07:31.090Z,4.70
2023-05-01T00:10:36.287Z,4.80
2023-05-01T00:13:38.491Z,3.73
2023-05-01T00:16:40.303Z,5.00
2023-05-01T00:19:42.377Z,9.00
2023-05-01T00:22:44.092Z,7.13
2023-05-01T00:25:45.802Z,4.10
2023-05-01T00:28:47.516Z,4.47
2023-05-01T00:31:49.354Z,6.73
2023-05-01T00:34:51.468Z,5.40
2023-05-01T00:37:53.362Z,6.03
2023-05-01T00:40:55.152Z,5.83
2023-05-01T00:43:57.847Z,6.17
2023-05-01T00:47:00.901Z,8.37
2023-05-01T00:50:03.913Z,3.77
2023-05-01T00:53:06.035Z,3.90
2023-05-01T00:56:08.613Z,6.67
2023-05-01T00:59:10.698Z,10.40
2023-05-01T01:02:15.228Z,5.70
2023-05-01T01:05:17.093Z,4.13
2023-05-01T01:08:30.699Z,5.57
2023-05-01T01:11:42.415Z,4.33
2023-05-01T01:15:27.100Z,4.30
2023-05-01T01:18:48.459Z,4.30
2023-05-01T01:21:55.275Z,1.67
2023-05-01T01:25:34.323Z,5.47
2023-05-01T01:28:54.215Z,4.27
2023-05-01T01:32:19.511Z,8.53
2023-05-01T01:35:26.430Z,5.47
2023-05-01T01:38:43.582Z,3.93
2023-05-01T01:41:51.073Z,5.53
2023-05-01T01:44:55.787Z,5.33
2023-05-01T01:47:57.597Z,3.83
2023-05-01T01:51:00.957Z,5.17
2023-05-01T01:54:04.766Z,5.90
2023-05-01T01:57:08.406Z,5.63
2023-05-01T02:00:12.621Z,4.97
2023-05-01T02:03:24.203Z,5.23
2023-05-01T02:06:26.799Z,5.70
2023-05-01T02:09:30.286Z,5.20
2023-05-01T02:12:33.169Z,7.87
2023-05-01T02:15:40.707Z,5.83
2023-05-01T02:18:44.717Z,5.47
2023-05-01T02:21:48.379Z,8.10
2023-05-01T02:24:50.572Z,7.03
2023-05-01T02:28:07.868Z,5.57
2023-05-01T02:31:10.398Z,3.67
2023-05-01T02:34:12.397Z,5.10
2023-05-01T02:37:14.312Z,10.73
2023-05-01T02:40:18.898Z,13.70
2023-05-01T02:43:22.853Z,8.20
2023-05-01T02:46:29.272Z,6.43
2023-05-01T02:49:32.468Z,6.27
2023-05-01T02:52:35.092Z,5.73
2023-05-01T02:55:59.374Z,7.13
2023-05-01T02:59:01.402Z,5.77
2023-05-01T03:02:03.826Z,7.63
2023-05-01T03:05:06.310Z,5.17
2023-05-01T03:08:08.288Z,5.93
2023-05-01T03:11:10.135Z,5.30
2023-05-01T03:14:14.880Z,7.07
2023-05-01T03:17:16.869Z,3.80
2023-05-01T03:20:18.636Z,3.97
2023-05-01T03:23:21.257Z,5.47
2023-05-01T03:26:23.294Z,6.80
2023-05-01T03:29:26.003Z,5.67
2023-05-01T03:32:29.713Z,8.00
2023-05-01T03:35:32.619Z,6.33
2023-05-01T03:38:36.699Z,3.77
2023-05-01T03:41:44.619Z,5.03
2023-05-01T03:44:55.755Z,9.13
2023-05-01T03:47:58.743Z,6.90
2023-05-01T03:51:00.651Z,6.70
2023-05-01T03:54:03.360Z,5.83
2023-05-01T03:57:12.701Z,3.33
2023-05-01T04:00:14.968Z,7.87
2023-05-01T04:03:21.997Z,4.13
2023-05-01T04:06:27.302Z,6.37
2023-05-01T04:09:30.066Z,6.17
2023-05-01T04:12:33.273Z,6.27
2023-05-01T04:15:35.391Z,6.20
2023-05-01T04:18:37.750Z,4.77
2023-05-01T04:21:39.456Z,6.33
2023-05-01T04:24:41.409Z,6.17
2023-05-01T04:27:43.664Z,10.30
2023-05-01T04:30:46.703Z,6.07
2023-05-01T04:33:48.919Z,8.00
2023-05-01T04:36:52.088Z,5.07
2023-05-01T04:39:55.680Z,7.47
2023-05-01T04:42:58.988Z,7.43
2023-05-01T04:46:01.210Z,6.67
2023-05-01T04:49:03.070Z,6.90
2023-05-01T04:52:04.926Z,5.20
2023-05-01T04:55:19.150Z,8.40
2023-05-01T04:58:44.469Z,8.87
2023-05-01T05:01:50.657Z,5.30
2023-05-01T05:04:54.156Z,8.43
2023-05-01T05:07:56.261Z,5.17
2023-05-01T05:11:10.870Z,5.67
2023-05-01T05:14:33.434Z,8.57
2023-05-01T05:17:35.743Z,7.03
2023-05-01T05:20:40.877Z,4.10
2023-05-01T05:23:43.361Z,5.83
2023-05-01T05:26:45.420Z,7.43
2023-05-01T05:29:47.490Z,5.40
2023-05-01T05:32:49.827Z,7.13
2023-05-01T05:35:52.635Z,6.57
2023-05-01T05:38:59.200Z,4.33
2023-05-01T05:42:03.840Z,4.53
2023-05-01T05:45:07.306Z,5.57
2023-05-01T05:48:09.633Z,5.30
2023-05-01T05:51:14.592Z,7.33
2023-05-01T05:54:16.792Z,6.97
2023-05-01T05:57:20.588Z,9.80
2023-05-01T06:00:25.462Z,6.57
2023-05-01T06:03:27.952Z,7.67
2023-05-01T06:06:34.721Z,6.57
2023-05-01T06:09:37.448Z,5.50
2023-05-01T06:12:41.672Z,5.93
2023-05-01T06:15:54.438Z,7.40
2023-05-01T06:18:56.401Z,7.50
2023-05-01T06:21:58.528Z,6.57
2023-05-01T06:25:01.645Z,5.87
2023-05-01T06:28:05.735Z,9.03
2023-05-01T06:31:09.218Z,6.50
2023-05-01T06:34:16.263Z,5.73
2023-05-01T06:37:25.912Z,4.20
2023-05-01T06:40:27.918Z,9.67
2023-05-01T06:43:31.162Z,5.53
2023-05-01T06:46:33.349Z,4.53
2023-05-01T06:49:35.923Z,7.73
2023-05-01T06:52:37.696Z,6.83
2023-05-01T06:55:41.028Z,8.00
2023-05-01T06:58:43.090Z,7.23
2023-05-01T07:01:45.393Z,5.77
2023-05-01T07:04:47.182Z,5.97
2023-05-01T07:07:57.936Z,5.13
2023-05-01T07:11:03.150Z,5.00
2023-05-01T07:14:05.018Z,12.57
2023-05-01T07:17:07.166Z,8.00
2023-05-01T07:20:10.375Z,5.20
2023-05-01T07:23:12.386Z,7.63
2023-05-01T07:26:14.430Z,9.30
2023-05-01T07:29:16.816Z,6.53
2023-05-01T07:32:18.617Z,11.33
2023-05-01T07:35:20.630Z,6.53
2023-05-01T07:38:22.396Z,6.97
2023-05-01T07:41:25.601Z,4.93
2023-05-01T07:44:27.700Z,5.90
2023-05-01T07:47:30.151Z,4.97
2023-05-01T07:50:32.750Z,6.60
2023-05-01T07:53:34.889Z,6.57
2023-05-01T07:56:36.614Z,5.47
2023-05-01T07:59:38.385Z,6.37
2023-05-01T08:02:41.531Z,5.97
2023-05-01T08:05:43.657Z,11.07
2023-05-01T08:08:45.537Z,8.43
2023-05-01T08:11:47.482Z,10.03
2023-05-01T08:14:49.477Z,7.47
2023-05-01T08:17:51.863Z,8.07
2023-05-01T08:20:53.654Z,11.80
2023-05-01T08:23:56.587Z,6.87
2023-05-01T08:26:58.460Z,6.13
2023-05-01T08:33:15.159Z,5.20
2023-05-01T08:36:17.281Z,6.07
2023-05-01T08:39:19.916Z,6.63
2023-05-01T08:42:21.713Z,3.17
2023-05-01T08:45:25.426Z,2.60
2023-05-01T08:48:29.362Z,4.67
2023-05-01T08:51:33.265Z,3.57
2023-05-01T08:54:36.692Z,5.87
2023-05-01T08:57:39.341Z,3.50
2023-05-01T09:00:42.781Z,2.43
2023-05-01T09:03:45.741Z,4.17
2023-05-01T09:06:47.591Z,3.20
2023-05-01T09:09:49.353Z,4.37
2023-05-01T09:13:00.769Z,2.70
2023-05-01T09:16:04.470Z,2.13
2023-05-01T09:19:06.215Z,3.87
2023-05-01T09:22:09.482Z,5.50
2023-05-01T09:25:11.657Z,4.63
2023-05-01T09:28:13.352Z,6.40
2023-05-01T09:31:29.632Z,3.47
2023-05-01T09:34:31.557Z,3.67
2023-05-01T09:37:34.849Z,3.13
2023-05-01T09:40:36.724Z,4.97
2023-05-01T09:43:39.121Z,4.77
2023-05-01T09:46:44.405Z,5.77
2023-05-01T09:49:50.186Z,4.00
2023-05-01T09:52:52.651Z,4.57
2023-05-01T09:56:01.621Z,6.87
2023-05-01T09:59:16.508Z,7.87
2023-05-01T10:02:30.725Z,4.90
2023-05-01T10:05:44.251Z,6.53
2023-05-01T10:08:47.541Z,4.63
2023-05-01T10:11:55.773Z,3.47
2023-05-01T10:14:57.845Z,6.13
2023-05-01T10:18:00.021Z,6.13
2023-05-01T10:21:03.020Z,3.28
2023-05-01T10:24:05.852Z,5.43
2023-05-01T10:27:08.597Z,4.38
2023-05-01T10:30:10.864Z,6.72
2023-05-01T10:33:15.762Z,4.57
2023-05-01T10:36:43.482Z,4.05
2023-05-01T10:39:45.257Z,3.58
2023-05-01T10:43:16.096Z,4.30
2023-05-01T10:46:20.962Z,5.05
2023-05-01T10:49:22.863Z,4.07
2023-05-01T10:52:24.587Z,2.60
2023-05-01T10:55:36.779Z,4.13
2023-05-01T10:58:38.589Z,2.55
2023-05-01T11:01:48.559Z,2.03
2023-05-01T11:04:51.693Z,2.95
2023-05-01T11:08:31.550Z,2.17
2023-05-01T11:11:33.232Z,5.00
2023-05-01T11:14:53.728Z,4.05
2023-05-01T11:17:56.181Z,4.20
2023-05-01T11:20:58.241Z,4.45
2023-05-01T11:24:09.522Z,2.50
2023-05-01T11:27:13.679Z,2.65
2023-05-01T11:30:16.211Z,3.60
2023-05-01T11:33:23.295Z,1.25
2023-05-01T11:36:26.933Z,1.13
2023-05-01T11:39:29.017Z,1.70
2023-05-01T11:42:30.803Z,2.05
2023-05-01T11:45:34.841Z,1.35
2023-05-01T11:48:37.109Z,0.98
2023-05-01T11:51:39.005Z,0.63
2023-05-01T11:54:49.788Z,1.02
2023-05-01T11:57:53.410Z,2.85
2023-05-01T12:00:55.184Z,2.92
2023-05-01T12:03:57.384Z,1.10
2023-05-01T12:06:59.430Z,1.90
2023-05-01T12:10:01.310Z,0.70
2023-05-01T12:13:08.073Z,2.88
2023-05-01T12:16:10.689Z,1.75
2023-05-01T12:19:15.919Z,3.30
2023-05-01T12:22:18.334Z,2.70
2023-05-01T12:25:20.090Z,1.27
2023-05-01T12:28:22.100Z,3.80
2023-05-01T12:31:25.375Z,5.90
2023-05-01T12:34:33.288Z,1.90
2023-05-01T12:37:35.270Z,5.07
2023-05-01T12:40:37.991Z,3.20
2023-05-01T12:43:39.779Z,2.83
2023-05-01T12:46:42.314Z,2.38
2023-05-01T12:49:44.200Z,2.28
2023-05-01T12:52:46.112Z,9.25
2023-05-01T12:55:50.379Z,1.75
2023-05-01T12:58:53.554Z,3.53
2023-05-01T13:02:03.577Z,4.10
2023-05-01T13:05:07.680Z,2.72
2023-05-01T13:08:09.425Z,3.42
2023-05-01T13:11:16.144Z,4.57
2023-05-01T13:14:17.967Z,2.67
2023-05-01T13:17:31.349Z,1.77
2023-05-01T13:20:33.225Z,2.85
2023-05-01T13:23:36.336Z,3.28
2023-05-01T13:26:38.231Z,2.72
2023-05-01T13:29:45.486Z,2.53
2023-05-01T13:32:47.673Z,1.80
2023-05-01T13:35:49.430Z,1.35
2023-05-01T13:38:54.089Z,1.67
2023-05-01T13:41:55.997Z,2.75
2023-05-01T13:44:58.122Z,3.25
2023-05-01T13:48:00.154Z,3.40
2023-05-01T13:51:02.011Z,2.20
2023-05-01T13:54:04.463Z,1.70
2023-05-01T13:57:06.255Z,2.63
2023-05-01T14:00:10.637Z,0.98
2023-05-01T14:03:16.292Z,1.33
2023-05-01T14:06:19.918Z,0.70
2023-05-01T14:09:22.016Z,3.22
2023-05-01T14:12:33.960Z,3.10
2023-05-01T14:15:35.999Z,1.10
2023-05-01T14:18:48.235Z,3.63
2023-05-01T14:21:49.979Z,1.80
2023-05-01T14:24:51.755Z,3.55
2023-05-01T14:27:54.969Z,3.47
2023-05-01T14:30:56.762Z,1.35
2023-05-01T14:34:01.138Z,1.02
2023-05-01T14:37:02.845Z,3.50
2023-05-01T14:40:13.765Z,3.10
2023-05-01T14:43:20.076Z,2.45
2023-05-01T14:46:33.307Z,1.80
2023-05-01T14:49:35.740Z,1.48
2023-05-01T14:52:39.151Z,4.07
2023-05-01T14:55:41.821Z,1.38
2023-05-01T14:58:43.588Z,1.30
2023-05-01T15:01:45.474Z,1.83
2023-05-01T15:04:47.350Z,2.17
2023-05-01T15:07:49.186Z,1.05
2023-05-01T15:10:52.832Z,4.13
2023-05-01T15:13:54.716Z,4.00
2023-05-01T15:16:56.519Z,2.65
2023-05-01T15:19:58.317Z,2.27
2023-05-01T15:23:00.015Z,4.53
2023-05-01T15:26:01.831Z,10.00
2023-05-01T15:29:03.566Z,4.60
2023-05-01T15:32:12.392Z,4.93
2023-05-01T15:35:14.735Z,4.20
2023-05-01T15:38:16.807Z,7.50
2023-05-01T15:41:19.281Z,4.60
2023-05-01T15:44:21.129Z,2.20
2023-05-01T15:47:22.982Z,5.13
2023-05-01T15:50:24.728Z,3.20
2023-05-01T15:53:26.450Z,10.37
2023-05-01T15:56:28.842Z,5.43
2023-05-01T15:59:30.788Z,5.30
2023-05-01T16:02:32.748Z,10.17
2023-05-01T16:05:37.130Z,5.80
2023-05-01T16:08:39.271Z,5.47
2023-05-01T16:11:41.012Z,7.57
2023-05-01T16:14:42.845Z,7.00
2023-05-01T16:17:46.374Z,5.90
2023-05-01T16:20:48.267Z,4.67
2023-05-01T16:23:51.566Z,5.07
2023-05-01T16:26:53.353Z,5.03
2023-05-01T16:29:55.184Z,6.37
2023-05-01T16:32:56.987Z,8.23
2023-05-01T16:35:59.562Z,5.57
2023-05-01T16:39:01.299Z,3.90
2023-05-01T16:42:03.178Z,4.73
2023-05-01T16:45:08.563Z,4.70
2023-05-01T16:48:10.662Z,4.20
2023-05-01T16:51:12.367Z,6.43
2023-05-01T16:54:14.957Z,5.87
2023-05-01T16:57:17.149Z,4.70
2023-05-01T17:00:19.569Z,7.37
2023-05-01T17:03:21.259Z,4.73
2023-05-01T17:06:23.020Z,5.20
2023-05-01T17:09:24.781Z,4.97
2023-05-01T17:12:30.565Z,5.60
2023-05-01T17:15:32.534Z,9.10
2023-05-01T17:18:34.545Z,10.87
2023-05-01T17:21:36.249Z,7.23
2023-05-01T17:24:38.227Z,6.27
2023-05-01T17:27:40.072Z,6.60
2023-05-01T17:30:41.763Z,3.90
2023-05-01T17:33:43.481Z,4.07
2023-05-01T17:36:45.426Z,4.33
2023-05-01T17:39:47.104Z,4.33
2023-05-01T17:42:48.862Z,3.93
2023-05-01T17:45:50.603Z,5.17
2023-05-01T17:48:52.541Z,4.27
2023-05-01T17:51:54.258Z,6.73
2023-05-01T17:54:56.001Z,5.03
2023-05-01T17:57:57.813Z,4.37
2023-05-01T18:00:59.532Z,6.33
2023-05-01T18:04:01.427Z,5.63
2023-05-01T18:07:03.544Z,5.30
2023-05-01T18:10:05.737Z,6.10
2023-05-01T18:13:07.519Z,5.00
2023-05-01T18:16:09.908Z,6.57
2023-05-01T18:19:12.841Z,6.13
2023-05-01T18:22:14.892Z,11.50
2023-05-01T18:25:17.147Z,7.93
2023-05-01T18:28:19.086Z,6.63
2023-05-01T18:31:20.930Z,13.73
2023-05-01T18:34:22.657Z,9.33
2023-05-01T18:37:25.807Z,10.97
2023-05-01T18:40:27.695Z,7.87
2023-05-01T18:43:29.377Z,9.37
2023-05-01T18:46:31.159Z,8.13
2023-05-01T18:49:32.883Z,8.47
2023-05-01T18:52:36.890Z,7.53
2023-05-01T18:55:38.585Z,8.13
2023-05-01T18:58:40.263Z,5.53
2023-05-01T19:01:41.996Z,8.00
2023-05-01T19:04:56.592Z,8.27
2023-05-01T19:08:01.789Z,13.23
2023-05-01T19:11:04.813Z,8.30
2023-05-01T19:14:06.499Z,6.77
2023-05-01T19:17:08.498Z,8.47
2023-05-01T19:20:10.535Z,7.83
2023-05-01T19:23:12.374Z,6.63
2023-05-01T19:26:14.169Z,7.17
2023-05-01T19:29:15.828Z,5.23
2023-05-01T19:32:17.980Z,5.07
2023-05-01T19:35:19.684Z,5.87
2023-05-01T19:38:21.730Z,7.07
2023-05-01T19:41:23.454Z,11.80
2023-05-01T19:44:25.522Z,12.97
2023-05-01T19:47:27.304Z,11.13
2023-05-01T19:50:28.986Z,10.97
2023-05-01T19:53:31.200Z,12.33
2023-05-01T19:56:32.945Z,9.70
2023-05-01T19:59:38.624Z,16.73
2023-05-01T20:02:41.493Z,12.13
2023-05-01T20:05:43.344Z,8.50
2023-05-01T20:08:45.035Z,14.63
2023-05-01T20:11:46.726Z,9.40
2023-05-01T20:14:48.852Z,8.33
2023-05-01T20:17:50.601Z,7.80
2023-05-01T20:20:52.302Z,8.60
2023-05-01T20:23:54.907Z,16.73
2023-05-01T20:26:59.263Z,9.50
2023-05-01T20:30:01.534Z,8.67
2023-05-01T20:33:03.555Z,8.80
2023-05-01T20:36:06.573Z,8.00
2023-05-01T20:39:08.279Z,8.43
2023-05-01T20:42:10.038Z,7.40
2023-05-01T20:45:11.918Z,10.60
2023-05-01T20:48:13.647Z,8.67
2023-05-01T20:51:18.196Z,11.50
2023-05-01T20:54:19.852Z,9.63
2023-05-01T20:57:21.732Z,10.37
2023-05-01T21:00:23.424Z,11.60
2023-05-01T21:03:25.192Z,9.80
2023-05-01T21:06:27.210Z,14.40
2023-05-01T21:09:28.931Z,8.57
2023-05-01T21:12:30.606Z,11.87
2023-05-01T21:15:33.774Z,10.97
2023-05-01T21:18:36.229Z,12.13
2023-05-01T21:21:38.917Z,10.77
2023-05-01T21:24:43.943Z,15.97
2023-05-01T21:27:45.791Z,21.30
2023-05-01T21:30:49.283Z,13.23
2023-05-01T21:33:51.036Z,13.67
2023-05-01T21:36:52.921Z,17.60
2023-05-01T21:39:56.840Z,17.07
2023-05-01T21:43:00.261Z,16.37
2023-05-01T21:46:02.647Z,18.97
2023-05-01T21:49:04.605Z,18.13
2023-05-01T21:52:08.732Z,15.97
2023-05-01T21:55:17.268Z,20.97
2023-05-01T21:58:19.033Z,17.07
2023-05-01T22:01:22.140Z,18.63
2023-05-01T22:04:23.892Z,20.53
2023-05-01T22:07:25.719Z,23.07
2023-05-01T22:10:27.493Z,19.80
2023-05-01T22:13:33.239Z,20.33
2023-05-01T22:16:35.015Z,21.13
2023-05-01T22:19:37.784Z,17.67
2023-05-01T22:22:41.379Z,18.80
2023-05-01T22:25:43.021Z,23.73
2023-05-01T22:28:45.276Z,21.90
2023-05-01T22:31:46.953Z,21.40
2023-05-01T22:34:48.689Z,22.47
2023-05-01T22:37:50.445Z,21.43
2023-05-01T22:40:52.198Z,23.27
2023-05-01T22:43:53.986Z,23.07
2023-05-01T22:46:55.846Z,21.47
2023-05-01T22:49:57.788Z,20.83
2023-05-01T22:53:00.338Z,25.20
2023-05-01T22:56:02.046Z,20.23
2023-05-01T22:59:03.726Z,22.03
2023-05-01T23:02:05.498Z,24.67
2023-05-01T23:05:08.162Z,22.60
2023-05-01T23:08:10.043Z,25.97
2023-05-01T23:11:15.497Z,27.30
2023-05-01T23:14:18.156Z,27.73
2023-05-01T23:17:19.942Z,29.43
2023-05-01T23:20:23.813Z,26.17
2023-05-01T23:23:30.860Z,28.87
2023-05-01T23:26:32.971Z,28.60
2023-05-01T23:29:35.054Z,29.70
2023-05-01T23:32:40.080Z,28.20
2023-05-01T23:35:41.807Z,29.40
2023-05-01T23:38:43.599Z,35.73
2023-05-01T23:41:45.381Z,32.47
2023-05-01T23:44:47.277Z,32.07
2023-05-01T23:47:48.998Z,30.80
2023-05-01T23:50:50.916Z,29.67
2023-05-01T23:53:52.618Z,32.07
2023-05-01T23:56:54.459Z,35.23
2023-05-01T23:59:56.570Z,36.70
